createdAt,value
2019-03-24T00:00:11.764Z,4.90
2019-03-24T00:02:39.967Z,5.00
2019-03-24T00:05:06.811Z,5.00
2019-03-24T00:07:34.178Z,4.90
2019-03-24T00:10:00.415Z,4.90
2019-03-24T00:12:26.571Z,4.90
2019-03-24T00:14:52.763Z,4.90
2019-03-24T00:17:18.916Z,4.90
2019-03-24T00:19:45.108Z,4.70
2019-03-24T00:22:11.282Z,4.60
2019-03-24T00:24:38.548Z,4.50
2019-03-24T00:27:04.699Z,4.60
2019-03-24T00:29:30.879Z,4.60
2019-03-24T00:31:57.076Z,4.60
2019-03-24T00:34:23.269Z,4.60
2019-03-24T00:36:49.423Z,4.50
2019-03-24T00:39:15.675Z,4.40
2019-03-24T00:41:41.838Z,4.50
2019-03-24T00:44:07.998Z,4.50
2019-03-24T00:46:34.511Z,4.50
2019-03-24T00:49:00.666Z,4.50
2019-03-24T00:51:26.832Z,4.50
2019-03-24T00:53:53.016Z,4.60
2019-03-24T00:56:19.196Z,4.50
2019-03-24T00:58:45.382Z,4.50
2019-03-24T01:01:11.671Z,4.50
2019-03-24T01:03:38.049Z,4.50
2019-03-24T01:06:04.197Z,4.60
2019-03-24T01:08:30.364Z,4.60
2019-03-24T01:10:56.559Z,4.50
2019-03-24T01:13:22.721Z,4.50
2019-03-24T01:15:48.863Z,4.50
2019-03-24T01:18:15.058Z,4.30
2019-03-24T01:20:41.235Z,4.30
2019-03-24T01:23:07.392Z,4.30
2019-03-24T01:25:33.581Z,4.30
2019-03-24T01:27:59.947Z,4.30
2019-03-24T01:30:26.114Z,4.30
2019-03-24T01:32:53.326Z,4.30
2019-03-24T01:35:19.484Z,4.30
2019-03-24T01:37:45.691Z,4.20
2019-03-24T01:40:12.231Z,4.20
2019-03-24T01:42:38.399Z,4.10
2019-03-24T01:45:07.463Z,4.10
2019-03-24T01:47:33.648Z,4.10
2019-03-24T01:49:59.799Z,4.00
2019-03-24T01:52:25.955Z,4.00
2019-03-24T01:54:52.276Z,4.00
2019-03-24T01:57:18.436Z,3.90
2019-03-24T01:59:44.599Z,3.90
2019-03-24T02:02:10.808Z,3.90
2019-03-24T02:04:36.964Z,3.90
2019-03-24T02:07:03.146Z,3.80
2019-03-24T02:09:29.363Z,3.80
2019-03-24T02:11:55.516Z,3.70
2019-03-24T02:14:21.693Z,3.70
2019-03-24T02:16:47.868Z,3.70
2019-03-24T02:19:14.029Z,3.70
2019-03-24T02:21:40.228Z,3.60
2019-03-24T02:24:06.379Z,3.60
2019-03-24T02:26:32.535Z,3.60
2019-03-24T02:28:58.704Z,3.40
2019-03-24T02:31:24.868Z,3.40
2019-03-24T02:33:51.071Z,3.50
2019-03-24T02:36:17.242Z,3.50
2019-03-24T02:38:43.396Z,3.40
2019-03-24T02:41:09.623Z,3.30
2019-03-24T02:43:35.803Z,3.20
2019-03-24T02:46:02.054Z,3.30
2019-03-24T02:48:28.235Z,3.30
2019-03-24T02:50:54.383Z,3.30
2019-03-24T02:53:20.570Z,3.30
2019-03-24T02:55:47.719Z,3.20
2019-03-24T02:58:14.871Z,3.20
2019-03-24T03:00:41.076Z,3.20
2019-03-24T03:03:07.228Z,3.20
2019-03-24T03:05:33.445Z,3.20
2019-03-24T03:07:59.628Z,3.30
2019-03-24T03:10:26.872Z,3.20
2019-03-24T03:12:53.064Z,3.30
2019-03-24T03:15:19.237Z,3.30
2019-03-24T03:17:45.396Z,3.20
2019-03-24T03:20:11.940Z,3.30
2019-03-24T03:22:38.298Z,3.40
2019-03-24T03:25:06.649Z,3.40
2019-03-24T03:27:33.823Z,3.10
2019-03-24T03:29:59.977Z,3.00
2019-03-24T03:32:26.163Z,2.80
2019-03-24T03:34:55.961Z,2.80
2019-03-24T03:37:22.118Z,2.90
2019-03-24T03:39:48.361Z,2.80
2019-03-24T03:42:14.638Z,2.90
2019-03-24T03:44:40.959Z,2.90
2019-03-24T03:47:07.145Z,2.90
2019-03-24T03:49:33.300Z,2.80
2019-03-24T03:51:59.469Z,2.80
2019-03-24T03:54:25.642Z,2.70
2019-03-24T03:56:51.809Z,2.70
2019-03-24T03:59:17.985Z,2.80
2019-03-24T04:01:44.130Z,3.00
2019-03-24T04:04:10.347Z,2.90
2019-03-24T04:06:36.495Z,2.80
2019-03-24T04:09:04.568Z,2.70
2019-03-24T04:11:30.843Z,2.60
2019-03-24T04:13:57.022Z,2.60
2019-03-24T04:16:23.172Z,2.70
2019-03-24T04:18:49.907Z,2.70
2019-03-24T04:21:16.060Z,2.60
2019-03-24T04:23:42.221Z,2.70
2019-03-24T04:26:08.395Z,2.60
2019-03-24T04:28:34.557Z,2.40
2019-03-24T04:31:00.731Z,2.40
2019-03-24T04:33:26.881Z,2.30
2019-03-24T04:35:53.091Z,2.30
2019-03-24T04:38:19.252Z,2.30
2019-03-24T04:40:45.449Z,2.40
2019-03-24T04:43:11.617Z,2.30
2019-03-24T04:45:37.817Z,2.30
2019-03-24T04:48:04.103Z,2.20
2019-03-24T04:50:30.323Z,2.30
2019-03-24T04:52:56.486Z,2.20
2019-03-24T04:55:22.639Z,2.20
2019-03-24T04:57:48.824Z,2.20
2019-03-24T05:00:17.118Z,2.20
2019-03-24T05:02:43.287Z,2.30
2019-03-24T05:05:09.560Z,2.40
2019-03-24T05:07:35.939Z,2.40
2019-03-24T05:10:04.239Z,2.40
2019-03-24T05:12:30.527Z,2.30
2019-03-24T05:14:56.724Z,2.20
2019-03-24T05:17:26.953Z,2.20
2019-03-24T05:19:51.096Z,2.20
2019-03-24T05:22:17.269Z,2.20
2019-03-24T05:24:43.420Z,2.20
2019-03-24T05:27:09.588Z,2.30
2019-03-24T05:29:35.763Z,2.30
2019-03-24T05:32:01.907Z,2.40
2019-03-24T05:34:28.065Z,2.40
2019-03-24T05:36:54.427Z,2.40
2019-03-24T05:39:20.584Z,2.50
2019-03-24T05:41:46.739Z,2.60
2019-03-24T05:44:12.921Z,2.70
2019-03-24T05:46:39.067Z,3.00
2019-03-24T05:49:05.246Z,3.20
2019-03-24T05:51:31.435Z,3.50
2019-03-24T05:53:57.611Z,3.70
2019-03-24T05:56:23.787Z,4.10
2019-03-24T05:58:49.943Z,4.70
2019-03-24T06:01:16.199Z,5.50
2019-03-24T06:03:42.384Z,6.30
2019-03-24T06:06:08.536Z,6.80
2019-03-24T06:08:35.844Z,7.40
2019-03-24T06:11:03.102Z,8.00
2019-03-24T06:13:29.380Z,9.00
2019-03-24T06:15:55.651Z,9.50
2019-03-24T06:18:22.171Z,9.90
2019-03-24T06:20:48.431Z,10.10
2019-03-24T06:23:14.611Z,10.80
2019-03-24T06:25:40.795Z,11.20
2019-03-24T06:28:06.951Z,11.50
2019-03-24T06:30:33.335Z,12.10
2019-03-24T06:32:59.567Z,12.30
2019-03-24T06:35:26.733Z,12.90
2019-03-24T06:37:52.928Z,12.80
2019-03-24T06:40:19.878Z,13.80
2019-03-24T06:42:46.236Z,13.90
2019-03-24T06:45:12.840Z,13.60
2019-03-24T06:47:38.984Z,12.50
2019-03-24T06:50:06.175Z,12.10
2019-03-24T06:52:32.436Z,11.60
2019-03-24T06:54:58.588Z,11.00
2019-03-24T06:57:24.775Z,10.60
2019-03-24T06:59:50.932Z,11.00
2019-03-24T07:02:17.113Z,11.60
2019-03-24T07:04:43.315Z,12.90
2019-03-24T07:07:09.510Z,13.90
2019-03-24T07:09:35.668Z,14.50
2019-03-24T07:12:01.923Z,15.40
2019-03-24T07:14:28.099Z,16.20
2019-03-24T07:16:54.272Z,17.00
2019-03-24T07:19:20.467Z,18.30
2019-03-24T07:21:47.790Z,19.50
2019-03-24T07:24:13.948Z,20.70
2019-03-24T07:26:41.229Z,21.30
2019-03-24T07:29:07.400Z,22.40
2019-03-24T07:31:33.556Z,22.30
2019-03-24T07:33:59.723Z,21.20
2019-03-24T07:36:26.880Z,21.20
2019-03-24T07:38:53.047Z,21.40
2019-03-24T07:41:19.204Z,21.40
2019-03-24T07:43:45.411Z,22.00
2019-03-24T07:46:11.568Z,22.90
2019-03-24T07:48:37.812Z,23.70
2019-03-24T07:51:03.979Z,23.60
2019-03-24T07:53:30.218Z,24.00
2019-03-24T07:55:56.401Z,23.40
2019-03-24T07:58:22.591Z,24.30
2019-03-24T08:00:48.740Z,25.40
2019-03-24T08:03:14.923Z,24.30
2019-03-24T08:05:41.083Z,24.10
2019-03-24T08:08:07.459Z,24.50
2019-03-24T08:10:33.616Z,24.30
2019-03-24T08:12:59.796Z,23.70
2019-03-24T08:15:25.957Z,24.10
2019-03-24T08:17:52.319Z,24.30
2019-03-24T08:20:18.577Z,24.50
2019-03-24T08:22:44.805Z,25.40
2019-03-24T08:25:11.289Z,26.60
2019-03-24T08:27:38.682Z,26.00
2019-03-24T08:30:06.355Z,27.60
2019-03-24T08:32:32.651Z,27.40
2019-03-24T08:34:58.832Z,26.60
2019-03-24T08:37:25.000Z,26.10
2019-03-24T08:39:53.080Z,26.10
2019-03-24T08:42:19.241Z,27.10
2019-03-24T08:44:46.506Z,29.10
2019-03-24T08:47:12.656Z,30.20
2019-03-24T08:49:38.852Z,29.30
2019-03-24T08:52:06.040Z,30.40
2019-03-24T08:54:32.212Z,30.90
2019-03-24T08:56:58.564Z,29.90
2019-03-24T08:59:24.786Z,31.40
2019-03-24T09:01:50.991Z,32.20
2019-03-24T09:04:17.151Z,31.00
2019-03-24T09:06:43.448Z,31.30
2019-03-24T09:09:09.667Z,31.10
2019-03-24T09:11:35.829Z,30.70
2019-03-24T09:14:01.986Z,31.70
2019-03-24T09:16:28.191Z,31.90
2019-03-24T09:18:54.439Z,32.80
2019-03-24T09:21:20.619Z,32.20
2019-03-24T09:23:46.831Z,32.80
2019-03-24T09:26:13.070Z,31.90
2019-03-24T09:28:39.279Z,31.80
2019-03-24T09:31:08.278Z,31.70
2019-03-24T09:33:35.197Z,32.60
2019-03-24T09:36:01.484Z,32.40
2019-03-24T09:38:27.744Z,32.30
2019-03-24T09:40:54.168Z,33.40
2019-03-24T09:43:20.416Z,32.80
2019-03-24T09:45:46.640Z,32.30
2019-03-24T09:48:12.862Z,32.00
2019-03-24T09:50:39.076Z,32.90
2019-03-24T09:53:05.334Z,33.60
2019-03-24T09:55:32.569Z,32.20
2019-03-24T09:57:58.787Z,32.60
2019-03-24T10:00:25.194Z,31.20
2019-03-24T10:02:51.429Z,31.80
2019-03-24T10:05:17.606Z,32.40
2019-03-24T10:07:43.783Z,32.40
2019-03-24T10:10:10.432Z,32.90
2019-03-24T10:12:37.672Z,32.20
2019-03-24T10:15:05.148Z,31.70
2019-03-24T10:17:31.355Z,30.20
2019-03-24T10:19:57.644Z,29.20
2019-03-24T10:22:23.816Z,29.40
2019-03-24T10:24:49.991Z,29.10
2019-03-24T10:27:16.141Z,30.70
2019-03-24T10:29:42.356Z,32.50
2019-03-24T10:32:08.675Z,33.00
2019-03-24T10:34:34.835Z,34.40
2019-03-24T10:37:00.997Z,34.20
2019-03-24T10:39:27.179Z,33.50
2019-03-24T10:41:53.331Z,31.90
2019-03-24T10:44:19.520Z,31.30
2019-03-24T10:46:45.689Z,31.60
2019-03-24T10:49:11.899Z,31.10
2019-03-24T10:51:38.109Z,32.00
2019-03-24T10:54:04.275Z,32.00
2019-03-24T10:56:30.439Z,31.10
2019-03-24T10:58:56.737Z,31.50
2019-03-24T11:01:22.958Z,32.20
2019-03-24T11:03:56.020Z,30.80
2019-03-24T11:06:22.560Z,30.60
2019-03-24T11:08:48.923Z,30.80
2019-03-24T11:11:15.255Z,31.40
2019-03-24T11:13:41.640Z,31.70
2019-03-24T11:16:07.908Z,31.40
2019-03-24T11:18:34.410Z,30.20
2019-03-24T11:21:00.588Z,31.50
2019-03-24T11:23:27.289Z,31.40
2019-03-24T11:25:54.910Z,30.70
2019-03-24T11:28:21.131Z,29.80
2019-03-24T11:30:47.317Z,29.70
2019-03-24T11:33:13.568Z,30.20
2019-03-24T11:35:39.757Z,30.10
2019-03-24T11:38:05.972Z,31.10
2019-03-24T11:40:32.229Z,31.70
2019-03-24T11:42:58.404Z,31.60
2019-03-24T11:45:26.892Z,31.50
2019-03-24T11:47:59.066Z,31.30
2019-03-24T11:50:27.736Z,30.30
2019-03-24T11:52:53.928Z,31.70
2019-03-24T11:55:22.063Z,31.80
2019-03-24T11:57:48.529Z,31.10
2019-03-24T12:00:16.088Z,31.10
2019-03-24T12:02:42.467Z,31.10
2019-03-24T12:05:09.877Z,29.40
2019-03-24T12:07:36.495Z,26.70
2019-03-24T12:10:05.466Z,25.10
2019-03-24T12:12:31.763Z,24.50
2019-03-24T12:14:57.991Z,23.30
2019-03-24T12:17:24.172Z,23.00
2019-03-24T12:19:56.704Z,22.60
2019-03-24T12:22:18.582Z,22.20
2019-03-24T12:24:44.866Z,22.20
2019-03-24T12:27:12.081Z,21.50
2019-03-24T12:29:38.287Z,21.40
2019-03-24T12:32:04.757Z,21.40
2019-03-24T12:34:30.959Z,21.10
2019-03-24T12:36:57.120Z,21.40
2019-03-24T12:39:23.321Z,21.50
2019-03-24T12:42:02.545Z,21.20
2019-03-24T12:44:31.643Z,20.30
2019-03-24T12:46:57.957Z,20.60
2019-03-24T12:49:24.112Z,21.20
2019-03-24T12:51:50.646Z,21.40
2019-03-24T12:54:16.943Z,21.50
2019-03-24T12:56:43.171Z,21.30
2019-03-24T12:59:09.532Z,21.10
2019-03-24T13:01:35.840Z,21.10
2019-03-24T13:04:02.081Z,20.70
2019-03-24T13:06:28.392Z,20.80
2019-03-24T13:08:54.584Z,20.60
2019-03-24T13:11:20.818Z,20.80
2019-03-24T13:13:47.135Z,20.70
2019-03-24T13:16:13.461Z,20.80
2019-03-24T13:18:41.226Z,20.80
2019-03-24T13:21:07.482Z,20.90
2019-03-24T13:23:33.721Z,20.80
2019-03-24T13:26:00.146Z,20.80
2019-03-24T13:28:30.086Z,20.60
2019-03-24T13:30:56.350Z,20.10
2019-03-24T13:33:22.605Z,20.10
2019-03-24T13:35:50.720Z,20.50
2019-03-24T13:38:41.567Z,20.60
2019-03-24T13:41:21.578Z,20.80
2019-03-24T13:43:47.780Z,20.90
2019-03-24T13:46:13.951Z,20.70
2019-03-24T13:48:40.192Z,20.50
2019-03-24T13:51:06.840Z,20.40
2019-03-24T13:53:33.008Z,20.30
2019-03-24T13:55:59.173Z,20.30
2019-03-24T13:58:25.455Z,20.30
2019-03-24T14:00:51.750Z,20.50
2019-03-24T14:03:17.993Z,20.00
2019-03-24T14:05:44.385Z,20.20
2019-03-24T14:08:10.524Z,20.20
2019-03-24T14:10:36.709Z,20.20
2019-03-24T14:13:02.971Z,20.20
2019-03-24T14:15:29.151Z,20.00
2019-03-24T14:17:55.337Z,20.00
2019-03-24T14:20:21.693Z,20.00
2019-03-24T14:22:47.904Z,19.90
2019-03-24T14:25:14.148Z,19.60
2019-03-24T14:27:40.451Z,19.40
2019-03-24T14:30:07.541Z,19.50
2019-03-24T14:32:33.740Z,19.60
2019-03-24T14:34:59.923Z,19.60
2019-03-24T14:37:26.104Z,19.70
2019-03-24T14:39:52.296Z,19.80
2019-03-24T14:42:21.839Z,20.00
2019-03-24T14:44:48.040Z,20.00
2019-03-24T14:47:14.248Z,19.70
2019-03-24T14:49:40.417Z,19.50
2019-03-24T14:52:06.588Z,19.50
2019-03-24T14:54:32.785Z,19.50
2019-03-24T14:56:58.987Z,19.40
2019-03-24T14:59:25.421Z,19.50
2019-03-24T15:01:51.596Z,19.40
2019-03-24T15:04:17.779Z,19.40
2019-03-24T15:06:43.940Z,19.30
2019-03-24T15:09:10.100Z,19.30
2019-03-24T15:11:36.290Z,19.10
2019-03-24T15:14:02.777Z,19.40
2019-03-24T15:16:28.990Z,19.40
2019-03-24T15:18:55.227Z,19.30
2019-03-24T15:21:21.488Z,19.30
2019-03-24T15:23:47.691Z,19.40
2019-03-24T15:26:13.894Z,19.20
2019-03-24T15:28:40.062Z,19.20
2019-03-24T15:31:06.265Z,18.90
2019-03-24T15:33:32.455Z,18.70
2019-03-24T15:35:58.659Z,18.70
2019-03-24T15:38:24.821Z,18.70
2019-03-24T15:40:51.004Z,18.80
2019-03-24T15:43:23.633Z,18.70
2019-03-24T15:45:49.842Z,18.70
2019-03-24T15:48:16.059Z,18.60
2019-03-24T15:50:42.227Z,18.60
2019-03-24T15:53:08.418Z,18.50
2019-03-24T15:55:34.706Z,18.40
2019-03-24T15:58:00.895Z,18.40
2019-03-24T16:00:39.281Z,18.40
2019-03-24T16:03:05.735Z,18.30
2019-03-24T16:05:31.929Z,18.20
2019-03-24T16:07:59.318Z,18.10
2019-03-24T16:10:34.857Z,18.10
2019-03-24T16:12:54.729Z,17.80
2019-03-24T16:15:21.524Z,17.80
2019-03-24T16:17:47.911Z,17.70
2019-03-24T16:20:14.083Z,17.70
2019-03-24T16:22:40.283Z,17.70
2019-03-24T16:25:06.661Z,17.60
2019-03-24T16:27:35.055Z,17.60
2019-03-24T16:30:00.947Z,17.50
2019-03-24T16:32:28.219Z,17.50
2019-03-24T16:34:54.386Z,17.30
2019-03-24T16:37:20.558Z,17.30
2019-03-24T16:39:46.752Z,17.20
2019-03-24T16:42:12.904Z,17.10
2019-03-24T16:44:40.471Z,17.00
2019-03-24T16:47:06.644Z,16.90
2019-03-24T16:49:32.826Z,16.80
2019-03-24T16:51:59.039Z,16.60
2019-03-24T16:54:25.208Z,16.50
2019-03-24T16:56:51.412Z,16.30
2019-03-24T16:59:17.619Z,16.20
2019-03-24T17:01:43.792Z,16.10
2019-03-24T17:04:10.113Z,16.00
2019-03-24T17:06:36.271Z,15.90
2019-03-24T17:09:04.773Z,15.80
2019-03-24T17:11:31.175Z,15.60
2019-03-24T17:13:59.236Z,15.50
2019-03-24T17:16:25.416Z,15.50
2019-03-24T17:18:51.615Z,15.50
2019-03-24T17:21:17.775Z,15.50
2019-03-24T17:23:43.936Z,15.30
2019-03-24T17:26:10.180Z,15.20
2019-03-24T17:28:36.353Z,15.10
2019-03-24T17:31:02.514Z,14.90
2019-03-24T17:33:28.785Z,14.90
2019-03-24T17:35:55.362Z,14.90
2019-03-24T17:38:21.512Z,14.80
2019-03-24T17:40:47.696Z,14.70
2019-03-24T17:43:13.844Z,14.60
2019-03-24T17:45:40.006Z,14.60
2019-03-24T17:48:06.201Z,14.60
2019-03-24T17:50:32.445Z,14.50
2019-03-24T17:52:58.637Z,14.30
2019-03-24T17:55:27.800Z,14.30
2019-03-24T17:57:52.961Z,14.20
2019-03-24T18:00:36.438Z,14.20
2019-03-24T18:03:02.819Z,14.20
2019-03-24T18:05:29.017Z,14.20
2019-03-24T18:07:55.224Z,14.10
2019-03-24T18:10:21.392Z,14.00
2019-03-24T18:12:47.579Z,14.00
2019-03-24T18:15:14.545Z,14.00
2019-03-24T18:17:40.723Z,13.90
2019-03-24T18:20:09.931Z,13.70
2019-03-24T18:22:36.372Z,13.60
2019-03-24T18:25:07.261Z,13.50
2019-03-24T18:27:33.409Z,13.40
2019-03-24T18:29:59.584Z,13.40
2019-03-24T18:32:25.858Z,13.40
2019-03-24T18:34:52.028Z,13.30
2019-03-24T18:37:18.188Z,13.20
2019-03-24T18:39:44.373Z,13.10
2019-03-24T18:42:10.536Z,13.10
2019-03-24T18:44:36.688Z,13.00
2019-03-24T18:47:02.887Z,12.90
2019-03-24T18:49:29.056Z,12.90
2019-03-24T18:51:55.216Z,12.80
2019-03-24T18:54:21.440Z,12.70
2019-03-24T18:56:47.603Z,12.70
2019-03-24T18:59:13.784Z,12.60
2019-03-24T19:01:39.944Z,12.50
2019-03-24T19:04:06.107Z,12.50
2019-03-24T19:06:32.293Z,12.40
2019-03-24T19:08:58.466Z,12.30
2019-03-24T19:11:24.632Z,12.20
2019-03-24T19:13:50.823Z,12.20
2019-03-24T19:16:17.009Z,12.10
2019-03-24T19:18:43.187Z,12.00
2019-03-24T19:21:09.382Z,12.00
2019-03-24T19:23:35.571Z,11.90
2019-03-24T19:26:01.986Z,11.90
2019-03-24T19:28:29.291Z,11.80
2019-03-24T19:30:55.483Z,11.80
2019-03-24T19:33:21.767Z,11.70
2019-03-24T19:35:47.955Z,11.70
2019-03-24T19:38:14.216Z,11.60
2019-03-24T19:40:40.495Z,11.60
2019-03-24T19:43:06.662Z,11.60
2019-03-24T19:45:32.957Z,11.50
2019-03-24T19:47:59.195Z,11.50
2019-03-24T19:50:25.453Z,11.50
2019-03-24T19:52:51.734Z,11.40
2019-03-24T19:55:17.940Z,11.30
2019-03-24T19:57:44.136Z,11.30
2019-03-24T20:00:11.605Z,11.30
2019-03-24T20:02:38.863Z,11.30
2019-03-24T20:05:05.134Z,11.30
2019-03-24T20:07:31.533Z,11.30
2019-03-24T20:09:57.721Z,11.30
2019-03-24T20:12:23.879Z,11.20
2019-03-24T20:14:50.123Z,11.10
2019-03-24T20:17:16.415Z,11.10
2019-03-24T20:19:42.563Z,11.10
2019-03-24T20:22:08.724Z,11.10
2019-03-24T20:24:34.905Z,11.10
2019-03-24T20:27:01.072Z,11.00
2019-03-24T20:29:27.261Z,11.00
2019-03-24T20:31:53.439Z,10.90
2019-03-24T20:34:19.627Z,10.90
2019-03-24T20:36:45.796Z,10.80
2019-03-24T20:39:11.989Z,10.70
2019-03-24T20:41:38.251Z,10.70
2019-03-24T20:44:04.427Z,10.60
2019-03-24T20:46:30.626Z,10.60
2019-03-24T20:48:56.805Z,10.60
2019-03-24T20:51:22.969Z,10.50
2019-03-24T20:53:50.135Z,10.50
2019-03-24T20:56:16.348Z,10.40
2019-03-24T20:58:44.184Z,10.40
2019-03-24T21:01:10.371Z,10.30
2019-03-24T21:03:36.536Z,10.30
2019-03-24T21:06:02.810Z,10.20
2019-03-24T21:08:28.991Z,10.20
2019-03-24T21:10:55.150Z,10.20
2019-03-24T21:13:21.405Z,10.20
2019-03-24T21:15:47.653Z,10.20
2019-03-24T21:18:13.817Z,10.10
2019-03-24T21:20:39.980Z,10.10
2019-03-24T21:23:06.170Z,10.00
2019-03-24T21:25:32.319Z,9.90
2019-03-24T21:27:58.476Z,10.00
2019-03-24T21:30:36.069Z,10.00
2019-03-24T21:33:02.467Z,10.00
2019-03-24T21:35:28.621Z,10.00
2019-03-24T21:37:54.824Z,9.90
2019-03-24T21:40:21.008Z,9.80
2019-03-24T21:42:47.167Z,9.80
2019-03-24T21:45:13.469Z,9.60
2019-03-24T21:47:39.672Z,9.60
2019-03-24T21:50:06.434Z,9.60
2019-03-24T21:52:32.602Z,9.50
2019-03-24T21:54:58.795Z,9.40
2019-03-24T21:57:24.953Z,9.30
2019-03-24T21:59:51.165Z,9.20
2019-03-24T22:02:17.455Z,9.20
2019-03-24T22:04:43.706Z,9.10
2019-03-24T22:07:09.891Z,9.00
2019-03-24T22:09:36.061Z,9.00
2019-03-24T22:12:02.245Z,8.80
2019-03-24T22:14:28.431Z,8.80
2019-03-24T22:16:54.616Z,8.70
2019-03-24T22:19:20.804Z,8.60
2019-03-24T22:21:46.980Z,8.60
2019-03-24T22:24:13.149Z,8.50
2019-03-24T22:26:40.156Z,8.50
2019-03-24T22:29:06.340Z,8.40
2019-03-24T22:31:32.512Z,8.30
2019-03-24T22:33:58.684Z,8.30
2019-03-24T22:36:24.866Z,8.20
2019-03-24T22:38:51.013Z,8.10
2019-03-24T22:41:17.207Z,8.00
2019-03-24T22:43:44.544Z,7.80
2019-03-24T22:46:10.731Z,7.80
2019-03-24T22:48:37.012Z,7.90
2019-03-24T22:51:03.208Z,7.80
2019-03-24T22:53:29.404Z,7.80
2019-03-24T22:55:55.553Z,7.80
2019-03-24T22:58:21.707Z,7.80
2019-03-24T23:00:53.240Z,7.80
2019-03-24T23:03:19.789Z,7.70
2019-03-24T23:05:45.995Z,7.70
2019-03-24T23:08:12.205Z,7.70
2019-03-24T23:10:38.431Z,7.70
2019-03-24T23:13:04.714Z,7.80
2019-03-24T23:15:30.890Z,7.80
2019-03-24T23:17:57.147Z,7.80
2019-03-24T23:20:23.316Z,7.80
2019-03-24T23:22:49.475Z,7.80
2019-03-24T23:25:15.642Z,7.90
2019-03-24T23:27:42.014Z,7.90
2019-03-24T23:30:09.382Z,7.90
2019-03-24T23:32:36.648Z,8.00
2019-03-24T23:35:07.347Z,8.00
2019-03-24T23:37:33.523Z,8.00
2019-03-24T23:39:59.791Z,8.10
2019-03-24T23:42:25.985Z,8.20
2019-03-24T23:44:52.188Z,8.20
2019-03-24T23:47:18.363Z,8.20
2019-03-24T23:49:44.528Z,8.10
2019-03-24T23:52:10.683Z,8.10
2019-03-24T23:54:36.852Z,8.10
2019-03-24T23:57:03.108Z,8.10
2019-03-24T23:59:29.290Z,8.20
